Terminal Aerodrome Forecast
Issued by NWS Boston, MA

Home | Current Version | Previous Version | Text Only | Print | Product List | Glossary On
Versions: 1 2 3 4 5 6 7 8 9 10 11 12 13 14 15 16 17 18 19 20 21 22 23 24
000
FTUS41 KBOX 280206 AAA
TAFBOS
TAF AMD
KBOS 280206Z 2802/2906 21010KT P6SM SCT010 BKN100
     FM280600 24007KT 6SM BR SCT010 BKN100
     FM281200 32005KT P6SM SCT250
     FM281400 01005KT P6SM SCT250
     FM290300 VRB03KT P6SM BKN050=

USA.gov is the U.S. government's official web portal to all federal, state and local government web resources and services.